LPA727 UHWW-UHHH
Flight info
| Callsign | LPA727 |
|---|---|
| Flight time | N/A |
| Altitude | 37000 |
| Route | K0832F370 DOLMA2F DOLMA B356 TD B355 ARDEL ARDEL6D |
| Aircraft | A320/M-SDE3FGHIRWY/LB1 |
Departure
| Time | 2026-04-20 19:44 |
|---|---|
| Airport | Vladivostok International Airport (UHWW) |
Arrival
| Time | N/A |
|---|---|
| Airport | Khabarovsk Novy Airport (UHHH) |
| Time | Latitude | Longitude | Altitude | Speed | Heading |
|---|---|---|---|---|---|
| 2026-04-20 18:35 | 43.39932 | 132.17055 | 33 ft | 0 kts | 149° |
| 2026-04-20 19:25 | 43.39931 | 132.17055 | 60 ft | 0 kts | 149° |
| 2026-04-20 19:28 | 43.39930 | 132.17056 | 33 ft | 0 kts | 149° |
| 2026-04-20 19:28 | 43.39929 | 132.17057 | 32 ft | 0 kts | 149° |
| 2026-04-20 19:28 | 43.39968 | 132.17025 | 31 ft | 7 kts | 149° |
| 2026-04-20 19:29 | 43.40004 | 132.16994 | 31 ft | 4 kts | 135° |
| 2026-04-20 19:29 | 43.40017 | 132.16966 | 33 ft | 4 kts | 94° |
| 2026-04-20 19:29 | 43.40014 | 132.16936 | 33 ft | 0 kts | 65° |
| 2026-04-20 19:29 | 43.40014 | 132.16937 | 33 ft | 0 kts | 65° |
| 2026-04-20 19:30 | 43.40014 | 132.16938 | 33 ft | 0 kts | 65° |
| 2026-04-20 19:30 | 43.40015 | 132.16940 | 33 ft | 0 kts | 65° |
| 2026-04-20 19:30 | 43.40016 | 132.16943 | 33 ft | 0 kts | 65° |
| 2026-04-20 19:30 | 43.40017 | 132.16945 | 33 ft | 0 kts | 65° |
| 2026-04-20 19:31 | 43.40018 | 132.16948 | 33 ft | 0 kts | 65° |
| 2026-04-20 19:31 | 43.40018 | 132.16949 | 33 ft | 0 kts | 65° |
| 2026-04-20 19:34 | 43.40030 | 132.16980 | 31 ft | 7 kts | 61° |
| 2026-04-20 19:35 | 43.40056 | 132.17042 | 33 ft | 7 kts | 59° |
| 2026-04-20 19:35 | 43.40082 | 132.17085 | 33 ft | 5 kts | 36° |
| 2026-04-20 19:35 | 43.40109 | 132.17089 | 33 ft | 3 kts | 348° |
| 2026-04-20 19:35 | 43.40139 | 132.17069 | 33 ft | 8 kts | 334° |
| 2026-04-20 19:36 | 43.40195 | 132.17026 | 32 ft | 9 kts | 330° |
| 2026-04-20 19:36 | 43.40214 | 132.17012 | 33 ft | 0 kts | 331° |
| 2026-04-20 19:37 | 43.40221 | 132.17006 | 32 ft | 2 kts | 331° |
| 2026-04-20 19:37 | 43.40231 | 132.16999 | 31 ft | 1 kts | 331° |
| 2026-04-20 19:38 | 43.40233 | 132.16998 | 31 ft | 0 kts | 331° |
| 2026-04-20 19:38 | 43.40258 | 132.16979 | 30 ft | 7 kts | 332° |
| 2026-04-20 19:38 | 43.40298 | 132.16949 | 32 ft | 6 kts | 331° |
| 2026-04-20 19:38 | 43.40321 | 132.16932 | 31 ft | 5 kts | 331° |
| 2026-04-20 19:39 | 43.40336 | 132.16920 | 32 ft | 0 kts | 330° |
| 2026-04-20 19:39 | 43.40338 | 132.16918 | 32 ft | 0 kts | 330° |
| 2026-04-20 19:41 | 43.40339 | 132.16918 | 33 ft | 1 kts | 330° |
| 2026-04-20 19:41 | 43.40380 | 132.16886 | 31 ft | 9 kts | 331° |
| 2026-04-20 19:42 | 43.40427 | 132.16838 | 32 ft | 8 kts | 306° |
| 2026-04-20 19:42 | 43.40427 | 132.16780 | 32 ft | 6 kts | 241° |
| 2026-04-20 19:42 | 43.40424 | 132.16773 | 32 ft | 0 kts | 240° |
| 2026-04-20 19:43 | 43.40419 | 132.16760 | 32 ft | 13 kts | 240° |
| 2026-04-20 19:43 | 43.40229 | 132.16292 | 32 ft | 101 kts | 241° |
| 2026-04-20 19:43 | 43.39773 | 132.15153 | 75 ft | 166 kts | 243° |
| 2026-04-20 19:44 | 43.39235 | 132.13725 | 924 ft | 165 kts | 243° |
| 2026-04-20 19:44 | 43.38775 | 132.12363 | 2000 ft | 150 kts | 253° |
| 2026-04-20 19:44 | 43.38221 | 132.11084 | 2415 ft | 167 kts | 240° |
| 2026-04-20 19:44 | 43.37577 | 132.09629 | 2716 ft | 191 kts | 241° |
| 2026-04-20 19:45 | 43.36846 | 132.07970 | 3122 ft | 215 kts | 241° |
| 2026-04-20 19:45 | 43.36016 | 132.06125 | 3646 ft | 236 kts | 241° |
| 2026-04-20 19:45 | 43.35115 | 132.04191 | 4514 ft | 244 kts | 241° |
| 2026-04-20 19:45 | 43.34168 | 132.02228 | 4868 ft | 247 kts | 241° |
| 2026-04-20 19:46 | 43.33210 | 132.00279 | 4963 ft | 246 kts | 241° |
| 2026-04-20 19:46 | 43.32249 | 131.98328 | 4978 ft | 246 kts | 241° |
| 2026-04-20 19:46 | 43.31374 | 131.96325 | 4976 ft | 241 kts | 254° |
| 2026-04-20 19:46 | 43.31230 | 131.94098 | 4983 ft | 235 kts | 283° |
| 2026-04-20 19:47 | 43.31973 | 131.92127 | 4987 ft | 237 kts | 311° |
| 2026-04-20 19:47 | 43.33401 | 131.90966 | 4981 ft | 247 kts | 340° |
| 2026-04-20 19:47 | 43.35156 | 131.90970 | 4978 ft | 262 kts | 9° |
| 2026-04-20 19:47 | 43.36878 | 131.91886 | 4986 ft | 268 kts | 18° |
| 2026-04-20 19:48 | 43.38580 | 131.92962 | 5087 ft | 272 kts | 19° |
| 2026-04-20 19:48 | 43.40288 | 131.94086 | 6107 ft | 273 kts | 21° |
| 2026-04-20 19:48 | 43.41778 | 131.95744 | 6996 ft | 288 kts | 43° |
| 2026-04-20 19:48 | 43.43070 | 131.97888 | 7923 ft | 293 kts | 44° |
| 2026-04-20 19:49 | 43.44352 | 132.00086 | 8831 ft | 297 kts | 45° |
| 2026-04-20 19:49 | 43.45643 | 132.02323 | 9712 ft | 301 kts | 45° |
| 2026-04-20 19:49 | 43.46981 | 132.04637 | 10165 ft | 320 kts | 45° |
| 2026-04-20 19:49 | 43.48424 | 132.07117 | 10420 ft | 343 kts | 45° |
| 2026-04-20 19:50 | 43.49947 | 132.09735 | 10675 ft | 354 kts | 45° |
| 2026-04-20 19:50 | 43.51484 | 132.12392 | 10701 ft | 355 kts | 45° |
| 2026-04-20 19:50 | 43.53020 | 132.15053 | 10700 ft | 355 kts | 46° |
| 2026-04-20 19:50 | 43.54555 | 132.17717 | 10701 ft | 355 kts | 46° |
| 2026-04-20 19:51 | 43.56096 | 132.20392 | 10701 ft | 355 kts | 46° |
| 2026-04-20 19:51 | 43.57663 | 132.23016 | 10704 ft | 353 kts | 41° |
| 2026-04-20 19:51 | 43.59366 | 132.25498 | 11220 ft | 358 kts | 40° |
| 2026-04-20 19:51 | 43.61110 | 132.27961 | 12117 ft | 360 kts | 39° |
| 2026-04-20 19:52 | 43.62883 | 132.30429 | 12891 ft | 364 kts | 39° |
| 2026-04-20 19:52 | 43.64680 | 132.32926 | 13607 ft | 369 kts | 39° |
| 2026-04-20 19:52 | 43.66498 | 132.35461 | 14246 ft | 373 kts | 39° |
| 2026-04-20 19:52 | 43.68308 | 132.37995 | 14894 ft | 377 kts | 39° |
| 2026-04-20 19:53 | 43.70159 | 132.40597 | 15547 ft | 381 kts | 39° |
| 2026-04-20 19:53 | 43.72023 | 132.43230 | 16197 ft | 385 kts | 40° |
| 2026-04-20 19:53 | 43.73904 | 132.45898 | 16836 ft | 389 kts | 40° |
| 2026-04-20 19:53 | 43.75802 | 132.48591 | 17478 ft | 393 kts | 40° |
| 2026-04-20 19:54 | 43.77724 | 132.51316 | 18009 ft | 400 kts | 40° |
| 2026-04-20 19:54 | 43.79687 | 132.54102 | 18507 ft | 404 kts | 40° |
| 2026-04-20 19:54 | 43.81651 | 132.56899 | 19112 ft | 407 kts | 40° |
| 2026-04-20 19:54 | 43.83635 | 132.59728 | 19640 ft | 411 kts | 40° |
| 2026-04-20 19:55 | 43.85642 | 132.62590 | 20152 ft | 416 kts | 40° |
| 2026-04-20 19:55 | 43.87672 | 132.65482 | 20666 ft | 421 kts | 40° |
| 2026-04-20 19:55 | 43.89703 | 132.68373 | 21160 ft | 426 kts | 40° |
| 2026-04-20 19:55 | 43.91780 | 132.71328 | 21654 ft | 431 kts | 40° |
| 2026-04-20 19:56 | 43.93885 | 132.74324 | 22159 ft | 436 kts | 40° |
| 2026-04-20 19:56 | 43.96010 | 132.77358 | 22636 ft | 440 kts | 40° |
| 2026-04-20 19:56 | 43.98157 | 132.80433 | 23099 ft | 445 kts | 40° |
| 2026-04-20 19:56 | 44.00317 | 132.83532 | 23513 ft | 449 kts | 41° |
| 2026-04-20 19:57 | 44.02492 | 132.86656 | 23919 ft | 452 kts | 41° |
| 2026-04-20 19:57 | 44.04686 | 132.89811 | 24339 ft | 454 kts | 41° |
| 2026-04-20 19:57 | 44.06883 | 132.92976 | 24738 ft | 456 kts | 42° |
| 2026-04-20 19:57 | 44.09092 | 132.96163 | 25140 ft | 458 kts | 43° |
| 2026-04-20 19:58 | 44.11309 | 132.99364 | 25548 ft | 459 kts | 43° |
| 2026-04-20 19:58 | 44.13532 | 133.02573 | 25943 ft | 461 kts | 43° |
| 2026-04-20 19:58 | 44.15733 | 133.05754 | 26321 ft | 463 kts | 44° |
| 2026-04-20 19:58 | 44.17974 | 133.08995 | 26692 ft | 465 kts | 44° |
| 2026-04-20 19:59 | 44.20314 | 133.12198 | 27048 ft | 466 kts | 38° |
| 2026-04-20 19:59 | 44.22880 | 133.14959 | 27392 ft | 467 kts | 34° |
| 2026-04-20 19:59 | 44.25506 | 133.17654 | 27730 ft | 470 kts | 34° |
| 2026-04-20 19:59 | 44.28144 | 133.20362 | 28045 ft | 473 kts | 35° |
| 2026-04-20 20:00 | 44.30771 | 133.23061 | 28351 ft | 475 kts | 35° |
| 2026-04-20 20:00 | 44.33441 | 133.25814 | 28644 ft | 479 kts | 36° |
| 2026-04-20 20:00 | 44.36124 | 133.28587 | 28923 ft | 482 kts | 36° |
| 2026-04-20 20:00 | 44.38822 | 133.31382 | 29186 ft | 485 kts | 36° |
| 2026-04-20 20:01 | 44.41541 | 133.34203 | 29428 ft | 488 kts | 37° |
| 2026-04-20 20:01 | 44.44288 | 133.37056 | 29671 ft | 492 kts | 37° |
| 2026-04-20 20:01 | 44.47047 | 133.39919 | 29862 ft | 495 kts | 37° |
| 2026-04-20 20:01 | 44.49820 | 133.42800 | 30051 ft | 498 kts | 37° |
| 2026-04-20 20:02 | 44.52606 | 133.45704 | 30237 ft | 500 kts | 37° |
| 2026-04-20 20:02 | 44.55368 | 133.48586 | 30410 ft | 503 kts | 37° |
| 2026-04-20 20:02 | 44.58184 | 133.51521 | 30641 ft | 504 kts | 37° |
| 2026-04-20 20:02 | 44.60999 | 133.54459 | 30901 ft | 504 kts | 37° |
| 2026-04-20 20:03 | 44.63815 | 133.57399 | 31151 ft | 505 kts | 37° |
| 2026-04-20 20:03 | 44.66635 | 133.60347 | 31408 ft | 506 kts | 37° |
| 2026-04-20 20:03 | 44.69454 | 133.63300 | 31669 ft | 506 kts | 37° |
| 2026-04-20 20:03 | 44.72279 | 133.66272 | 31936 ft | 507 kts | 37° |
| 2026-04-20 20:04 | 44.75097 | 133.69242 | 32195 ft | 507 kts | 37° |
| 2026-04-20 20:04 | 44.77920 | 133.72218 | 32470 ft | 507 kts | 37° |
| 2026-04-20 20:04 | 44.80750 | 133.75202 | 32768 ft | 507 kts | 37° |
| 2026-04-20 20:04 | 44.83576 | 133.78182 | 33061 ft | 507 kts | 37° |
| 2026-04-20 20:05 | 44.86389 | 133.81152 | 33364 ft | 506 kts | 37° |
| 2026-04-20 20:05 | 44.89213 | 133.84139 | 33656 ft | 506 kts | 37° |
| 2026-04-20 20:05 | 44.92022 | 133.87115 | 33908 ft | 505 kts | 37° |
| 2026-04-20 20:05 | 44.94862 | 133.90058 | 34153 ft | 505 kts | 36° |
| 2026-04-20 20:06 | 44.97728 | 133.92927 | 34390 ft | 505 kts | 35° |
| 2026-04-20 20:06 | 45.00615 | 133.95762 | 34608 ft | 505 kts | 35° |
| 2026-04-20 20:06 | 45.03496 | 133.98582 | 34820 ft | 505 kts | 35° |
| 2026-04-20 20:06 | 45.06381 | 134.01414 | 35021 ft | 505 kts | 35° |
| 2026-04-20 20:07 | 45.09257 | 134.04258 | 35228 ft | 504 kts | 35° |
| 2026-04-20 20:07 | 45.12131 | 134.07118 | 35426 ft | 504 kts | 35° |
| 2026-04-20 20:07 | 45.14999 | 134.09988 | 35633 ft | 504 kts | 35° |
| 2026-04-20 20:07 | 45.17822 | 134.12821 | 35810 ft | 503 kts | 35° |
| 2026-04-20 20:08 | 45.20717 | 134.15734 | 35995 ft | 503 kts | 36° |
| 2026-04-20 20:08 | 45.23528 | 134.18569 | 36165 ft | 503 kts | 36° |
| 2026-04-20 20:08 | 45.26415 | 134.21485 | 36338 ft | 503 kts | 36° |
| 2026-04-20 20:08 | 45.29227 | 134.24325 | 36512 ft | 502 kts | 35° |
| 2026-04-20 20:09 | 45.32110 | 134.27240 | 36604 ft | 502 kts | 36° |
| 2026-04-20 20:09 | 45.37769 | 134.32968 | 36613 ft | 502 kts | 36° |
| 2026-04-20 20:10 | 45.43458 | 134.38738 | 36610 ft | 502 kts | 36° |
| 2026-04-20 20:10 | 45.49148 | 134.44514 | 36607 ft | 502 kts | 36° |
| 2026-04-20 20:11 | 45.54829 | 134.50310 | 36612 ft | 501 kts | 36° |
| 2026-04-20 20:11 | 45.60498 | 134.56115 | 36605 ft | 501 kts | 36° |
| 2026-04-20 20:12 | 45.66165 | 134.61930 | 36605 ft | 501 kts | 36° |
| 2026-04-20 20:12 | 45.71790 | 134.67701 | 36605 ft | 501 kts | 37° |
| 2026-04-20 20:13 | 45.80279 | 134.76460 | 36607 ft | 501 kts | 37° |
| 2026-04-20 20:13 | 45.85965 | 134.82281 | 36605 ft | 502 kts | 33° |
| 2026-04-20 20:14 | 45.92270 | 134.86360 | 36621 ft | 501 kts | 14° |
| 2026-04-20 20:14 | 45.99140 | 134.87805 | 36620 ft | 499 kts | 3° |
| 2026-04-20 20:15 | 46.06068 | 134.88716 | 36604 ft | 500 kts | 4° |
| 2026-04-20 20:15 | 46.12995 | 134.89186 | 36595 ft | 496 kts | 351° |
| 2026-04-20 20:16 | 46.19821 | 134.87733 | 36591 ft | 495 kts | 348° |
| 2026-04-20 20:16 | 46.26638 | 134.86164 | 36581 ft | 496 kts | 348° |
| 2026-04-20 20:17 | 46.33469 | 134.84580 | 36586 ft | 497 kts | 348° |
| 2026-04-20 20:17 | 46.40298 | 134.82985 | 36588 ft | 498 kts | 348° |
| 2026-04-20 20:18 | 46.47135 | 134.81376 | 36593 ft | 498 kts | 348° |
| 2026-04-20 20:18 | 46.53976 | 134.79754 | 36590 ft | 498 kts | 348° |
| 2026-04-20 20:19 | 46.60810 | 134.78120 | 36587 ft | 498 kts | 348° |
| 2026-04-20 20:19 | 46.67607 | 134.76481 | 36586 ft | 498 kts | 348° |
| 2026-04-20 20:20 | 46.74450 | 134.74818 | 36579 ft | 498 kts | 348° |
| 2026-04-20 20:20 | 46.81292 | 134.73140 | 36578 ft | 499 kts | 348° |
| 2026-04-20 20:21 | 46.88144 | 134.71450 | 36574 ft | 499 kts | 348° |
| 2026-04-20 20:21 | 46.94994 | 134.69728 | 36570 ft | 499 kts | 347° |
| 2026-04-20 20:22 | 47.01841 | 134.67916 | 36566 ft | 499 kts | 347° |
| 2026-04-20 20:22 | 47.08611 | 134.65971 | 36562 ft | 499 kts | 346° |
| 2026-04-20 20:23 | 47.15375 | 134.63813 | 36563 ft | 499 kts | 344° |
| 2026-04-20 20:23 | 47.22122 | 134.61379 | 36559 ft | 499 kts | 342° |
| 2026-04-20 20:24 | 47.28780 | 134.58632 | 36564 ft | 498 kts | 340° |
| 2026-04-20 20:24 | 47.35371 | 134.55509 | 36554 ft | 497 kts | 338° |
| 2026-04-20 20:25 | 47.41857 | 134.51971 | 36549 ft | 496 kts | 338° |
| 2026-04-20 20:25 | 47.45210 | 134.50741 | 36519 ft | 500 kts | 353° |
| 2026-04-20 20:25 | 47.48645 | 134.51008 | 36889 ft | 489 kts | 15° |
| 2026-04-20 20:26 | 47.51688 | 134.52944 | 37561 ft | 469 kts | 37° |
| 2026-04-20 20:26 | 47.54055 | 134.55987 | 38474 ft | 432 kts | 56° |
| 2026-04-20 20:26 | 47.55547 | 134.59581 | 39380 ft | 392 kts | 75° |
| 2026-04-20 20:26 | 47.56059 | 134.62116 | 39698 ft | 371 kts | 87° |
| 2026-04-20 20:27 | 47.56019 | 134.66885 | 39878 ft | 337 kts | 114° |
| 2026-04-20 20:27 | 47.55494 | 134.69050 | 39674 ft | 328 kts | 128° |
| 2026-04-20 20:27 | 47.54154 | 134.71695 | 39019 ft | 329 kts | 148° |
| 2026-04-20 20:27 | 47.52137 | 134.73481 | 38114 ft | 343 kts | 167° |
| 2026-04-20 20:28 | 47.49732 | 134.74001 | 37063 ft | 360 kts | 179° |
| 2026-04-20 20:28 | 47.47216 | 134.73404 | 36090 ft | 385 kts | 199° |
| 2026-04-20 20:28 | 47.44734 | 134.71610 | 35281 ft | 410 kts | 212° |
| 2026-04-20 20:28 | 47.42573 | 134.68990 | 35792 ft | 397 kts | 230° |
| 2026-04-20 20:29 | 47.41348 | 134.65458 | 36828 ft | 382 kts | 252° |
| 2026-04-20 20:29 | 47.41214 | 134.61685 | 38013 ft | 360 kts | 276° |
| 2026-04-20 20:29 | 47.41986 | 134.58290 | 38877 ft | 340 kts | 295° |
| 2026-04-20 20:29 | 47.43380 | 134.55546 | 39168 ft | 336 kts | 313° |
| 2026-04-20 20:30 | 47.45326 | 134.53483 | 38634 ft | 360 kts | 332° |
| 2026-04-20 20:30 | 47.47812 | 134.52299 | 37645 ft | 392 kts | 352° |
| 2026-04-20 20:30 | 47.50566 | 134.52359 | 37331 ft | 397 kts | 12° |
| 2026-04-20 20:30 | 47.53180 | 134.53589 | 37297 ft | 395 kts | 30° |
| 2026-04-20 20:31 | 47.55431 | 134.55848 | 37239 ft | 388 kts | 49° |
| 2026-04-20 20:31 | 47.57074 | 134.58908 | 37177 ft | 373 kts | 79° |
| 2026-04-20 20:31 | 47.57924 | 134.62469 | 37061 ft | 365 kts | 67° |
| 2026-04-20 20:31 | 47.59331 | 134.65442 | 37705 ft | 338 kts | 45° |
| 2026-04-20 20:32 | 47.60830 | 134.67240 | 38250 ft | 310 kts | 29° |
| 2026-04-20 20:32 | 47.63138 | 134.68677 | 37734 ft | 307 kts | 14° |
| 2026-04-20 20:32 | 47.63624 | 134.68859 | 37246 ft | 313 kts | 12° |
| 2026-04-20 20:32 | 47.66095 | 134.69530 | 34416 ft | 387 kts | 9° |
| 2026-04-20 20:33 | 47.68908 | 134.70187 | 29901 ft | 445 kts | 13° |
| 2026-04-20 20:33 | 47.72286 | 134.71826 | 27151 ft | 525 kts | 27° |
| 2026-04-20 20:33 | 47.75418 | 134.74239 | 27380 ft | 483 kts | 37° |
| 2026-04-20 20:33 | 47.78025 | 134.76885 | 28419 ft | 432 kts | 44° |
| 2026-04-20 20:34 | 47.80314 | 134.79627 | 28163 ft | 416 kts | 49° |